createdAt,value
2023-04-14T00:00:48.272Z,98468.09
2023-04-14T00:03:17.567Z,98463.69
2023-04-14T00:05:44.929Z,98459.81
2023-04-14T00:08:12.082Z,98446.44
2023-04-14T00:10:39.488Z,98435.00
2023-04-14T00:13:06.661Z,98440.19
2023-04-14T00:15:33.796Z,98434.28
2023-04-14T00:18:01.304Z,98445.72
2023-04-14T00:20:28.503Z,98447.38
2023-04-14T00:22:55.881Z,98448.81
2023-04-14T00:25:23.397Z,98450.75
2023-04-14T00:27:50.584Z,98450.78
2023-04-14T00:30:17.792Z,98451.63
2023-04-14T00:32:45.289Z,98452.00
2023-04-14T00:35:12.501Z,98455.91
2023-04-14T00:37:39.659Z,98452.72
2023-04-14T00:40:09.152Z,98463.47
2023-04-14T00:42:45.942Z,98442.62
2023-04-14T00:45:14.726Z,98438.16
2023-04-14T00:47:42.855Z,98452.94
2023-04-14T00:50:10.304Z,98448.34
2023-04-14T00:52:37.809Z,98441.69
2023-04-14T00:55:06.129Z,98427.41
2023-04-14T00:57:33.272Z,98431.97
2023-04-14T01:00:01.520Z,98433.56
2023-04-14T01:02:28.997Z,98422.63
2023-04-14T01:04:56.844Z,98414.94
2023-04-14T01:07:24.633Z,98407.50
2023-04-14T01:09:52.137Z,98412.69
2023-04-14T01:12:22.433Z,98401.37
2023-04-14T01:14:58.838Z,98387.38
2023-04-14T01:17:28.143Z,98373.81
2023-04-14T01:20:05.831Z,98358.25
2023-04-14T01:22:33.545Z,98348.31
2023-04-14T01:25:04.087Z,98342.47
2023-04-14T01:27:37.299Z,98348.38
2023-04-14T01:30:21.731Z,98337.63
2023-04-14T01:32:49.880Z,98328.44
2023-04-14T01:35:21.325Z,98336.09
2023-04-14T01:37:48.977Z,98327.09
2023-04-14T01:40:17.044Z,98331.25
2023-04-14T01:42:46.587Z,98349.56
2023-04-14T01:45:21.268Z,98345.97
2023-04-14T01:47:48.808Z,98340.00
2023-04-14T01:50:16.500Z,98334.78
2023-04-14T01:52:44.493Z,98333.75
2023-04-14T01:55:12.155Z,98325.25
2023-04-14T01:57:40.217Z,98331.66
2023-04-14T02:00:07.822Z,98323.50
2023-04-14T02:02:42.769Z,98314.13
2023-04-14T02:05:10.652Z,98305.62
2023-04-14T02:07:37.966Z,98287.25
2023-04-14T02:10:05.597Z,98294.34
2023-04-14T02:12:33.431Z,98297.66
2023-04-14T02:15:01.133Z,98303.63
2023-04-14T02:17:28.361Z,98307.81
2023-04-14T02:19:55.692Z,98315.91
2023-04-14T02:22:23.174Z,98322.16
2023-04-14T02:24:51.367Z,98320.41
2023-04-14T02:27:19.046Z,98317.06
2023-04-14T02:29:48.694Z,98322.94
2023-04-14T02:32:17.913Z,98324.00
2023-04-14T02:34:47.308Z,98329.81
2023-04-14T02:37:16.638Z,98336.66
2023-04-14T02:39:43.996Z,98330.09
2023-04-14T02:42:15.047Z,98332.63
2023-04-14T02:44:44.024Z,98326.69
2023-04-14T02:47:12.591Z,98333.69
2023-04-14T02:49:42.739Z,98326.66
2023-04-14T02:52:10.711Z,98324.78
2023-04-14T02:54:38.551Z,98323.72
2023-04-14T02:57:05.959Z,98319.56
2023-04-14T02:59:33.622Z,98316.97
2023-04-14T03:02:02.935Z,98313.41
2023-04-14T03:04:31.317Z,98304.06
2023-04-14T03:07:01.048Z,98301.41
2023-04-14T03:09:28.797Z,98304.88
2023-04-14T03:11:59.493Z,98306.53
2023-04-14T03:14:27.194Z,98294.59
2023-04-14T03:16:54.718Z,98298.78
2023-04-14T03:19:22.476Z,98291.00
2023-04-14T03:21:50.906Z,98284.22
2023-04-14T03:24:24.238Z,98274.00
2023-04-14T03:26:52.474Z,98263.25
2023-04-14T03:29:21.019Z,98251.25
2023-04-14T03:31:48.399Z,98244.59
2023-04-14T03:34:16.385Z,98256.41
2023-04-14T03:36:44.018Z,98279.16
2023-04-14T03:39:11.676Z,98303.81
2023-04-14T03:41:39.699Z,98304.06
2023-04-14T03:44:10.830Z,98305.12
2023-04-14T03:46:38.125Z,98325.81
2023-04-14T03:49:07.504Z,98350.66
2023-04-14T03:51:35.214Z,98366.47
2023-04-14T03:54:02.487Z,98346.75
2023-04-14T03:56:30.242Z,98360.63
2023-04-14T03:58:57.446Z,98349.88
2023-04-14T04:01:25.931Z,98354.72
2023-04-14T04:03:54.049Z,98345.25
2023-04-14T04:06:22.007Z,98341.84
2023-04-14T04:08:49.366Z,98334.09
2023-04-14T04:11:18.986Z,98325.34
2023-04-14T04:13:47.782Z,98326.22
2023-04-14T04:16:15.599Z,98323.22
2023-04-14T04:18:46.973Z,98325.78
2023-04-14T04:21:15.068Z,98318.69
2023-04-14T04:23:42.532Z,98316.66
2023-04-14T04:26:09.943Z,98315.00
2023-04-14T04:28:37.364Z,98303.59
2023-04-14T04:31:04.972Z,98290.31
2023-04-14T04:33:32.272Z,98282.28
2023-04-14T04:35:59.575Z,98281.88
2023-04-14T04:38:27.441Z,98276.47
2023-04-14T04:40:54.734Z,98270.22
2023-04-14T04:43:22.274Z,98275.53
2023-04-14T04:46:00.002Z,98281.19
2023-04-14T04:48:27.613Z,98294.97
2023-04-14T04:50:55.432Z,98303.41
2023-04-14T04:53:22.831Z,98298.97
2023-04-14T04:55:50.266Z,98298.88
2023-04-14T04:58:17.900Z,98297.44
2023-04-14T05:00:45.078Z,98306.06
2023-04-14T05:03:12.430Z,98308.63
2023-04-14T05:05:40.230Z,98317.47
2023-04-14T05:08:08.376Z,98322.47
2023-04-14T05:10:39.037Z,98321.56
2023-04-14T05:13:06.490Z,98327.38
2023-04-14T05:15:33.693Z,98322.56
2023-04-14T05:18:01.830Z,98325.41
2023-04-14T05:20:29.440Z,98326.94
2023-04-14T05:22:56.948Z,98326.16
2023-04-14T05:25:24.144Z,98331.81
2023-04-14T05:27:51.572Z,98329.28
2023-04-14T05:30:18.871Z,98332.87
2023-04-14T05:32:46.147Z,98329.06
2023-04-14T05:35:13.629Z,98320.38
2023-04-14T05:37:41.117Z,98330.81
2023-04-14T05:40:08.731Z,98319.25
2023-04-14T05:42:36.642Z,98328.03
2023-04-14T05:45:04.258Z,98327.94
2023-04-14T05:47:31.614Z,98338.25
2023-04-14T05:49:59.173Z,98339.97
2023-04-14T05:52:26.380Z,98345.19
2023-04-14T05:54:53.633Z,98347.13
2023-04-14T05:57:21.585Z,98352.91
2023-04-14T05:59:48.894Z,98344.75
2023-04-14T06:02:16.532Z,98326.66
2023-04-14T06:04:44.149Z,98322.41
2023-04-14T06:07:11.353Z,98325.97
2023-04-14T06:09:38.566Z,98324.00
2023-04-14T06:12:06.308Z,98323.31
2023-04-14T06:14:33.510Z,98320.50
2023-04-14T06:17:01.135Z,98329.94
2023-04-14T06:19:28.753Z,98326.81
2023-04-14T06:21:55.956Z,98326.97
2023-04-14T06:24:23.085Z,98316.22
2023-04-14T06:26:50.659Z,98316.25
2023-04-14T06:29:18.442Z,98308.66
2023-04-14T06:31:45.945Z,98319.75
2023-04-14T06:34:13.453Z,98309.44
2023-04-14T06:36:41.260Z,98307.56
2023-04-14T06:39:08.607Z,98308.31
2023-04-14T06:41:36.029Z,98296.50
2023-04-14T06:44:04.253Z,98290.38
2023-04-14T06:46:31.689Z,98285.94
2023-04-14T06:48:59.571Z,98289.59
2023-04-14T06:51:27.234Z,98295.47
2023-04-14T06:53:54.419Z,98293.78
2023-04-14T06:56:22.015Z,98296.25
2023-04-14T06:58:49.353Z,98291.84
2023-04-14T07:01:17.830Z,98305.53
2023-04-14T07:03:46.242Z,98303.81
2023-04-14T07:06:16.772Z,98307.28
2023-04-14T07:08:43.973Z,98303.09
2023-04-14T07:11:11.805Z,98304.97
2023-04-14T07:13:39.186Z,98296.31
2023-04-14T07:16:07.090Z,98291.19
2023-04-14T07:18:34.945Z,98302.50
2023-04-14T07:21:02.474Z,98304.44
2023-04-14T07:23:29.776Z,98305.19
2023-04-14T07:25:58.656Z,98299.44
2023-04-14T07:28:26.922Z,98299.34
2023-04-14T07:30:54.394Z,98293.91
2023-04-14T07:33:23.778Z,98292.50
2023-04-14T07:36:01.996Z,98288.88
2023-04-14T07:38:31.806Z,98288.78
2023-04-14T07:40:59.125Z,98281.94
2023-04-14T07:43:26.433Z,98276.81
2023-04-14T07:45:54.037Z,98288.19
2023-04-14T07:48:21.959Z,98284.00
2023-04-14T07:50:52.417Z,98290.91
2023-04-14T07:53:19.914Z,98289.19
2023-04-14T07:55:47.064Z,98289.06
2023-04-14T07:58:15.557Z,98282.00
2023-04-14T08:00:43.372Z,98295.19
2023-04-14T08:03:11.493Z,98296.13
2023-04-14T08:05:39.046Z,98294.06
2023-04-14T08:08:07.733Z,98293.34
2023-04-14T08:10:35.166Z,98282.16
2023-04-14T08:13:03.724Z,98292.56
2023-04-14T08:15:32.295Z,98282.12
2023-04-14T08:17:59.989Z,98275.16
2023-04-14T08:20:27.384Z,98271.69
2023-04-14T08:22:55.498Z,98282.16
2023-04-14T08:25:23.232Z,98273.41
2023-04-14T08:27:50.534Z,98274.41
2023-04-14T08:30:17.747Z,98265.66
2023-04-14T08:32:45.573Z,98262.28
2023-04-14T08:35:38.678Z,98272.69
2023-04-14T08:38:01.390Z,98277.84
2023-04-14T08:40:31.177Z,98283.09
2023-04-14T08:42:58.332Z,98278.56
2023-04-14T08:45:25.802Z,98285.50
2023-04-14T08:47:54.071Z,98285.53
2023-04-14T08:50:22.077Z,98296.00
2023-04-14T08:52:49.684Z,98300.28
2023-04-14T08:55:16.942Z,98304.47
2023-04-14T08:57:44.305Z,98297.53
2023-04-14T09:00:11.952Z,98298.47
2023-04-14T09:02:40.732Z,98297.81
2023-04-14T09:05:08.747Z,98301.13
2023-04-14T09:07:36.431Z,98300.19
2023-04-14T09:10:03.902Z,98304.56
2023-04-14T09:12:31.207Z,98300.41
2023-04-14T09:14:59.112Z,98311.63
2023-04-14T09:17:26.773Z,98301.00
2023-04-14T09:20:38.936Z,98304.50
2023-04-14T09:22:41.707Z,98310.38
2023-04-14T09:25:09.373Z,98317.37
2023-04-14T09:27:36.552Z,98321.69
2023-04-14T09:30:04.144Z,98321.88
2023-04-14T09:32:31.446Z,98327.81
2023-04-14T09:34:58.862Z,98322.13
2023-04-14T09:37:26.528Z,98332.22
2023-04-14T09:39:57.424Z,98336.06
2023-04-14T09:42:41.017Z,98331.72
2023-04-14T09:45:09.618Z,98330.72
2023-04-14T09:47:37.642Z,98324.59
2023-04-14T09:50:05.172Z,98325.50
2023-04-14T09:52:36.886Z,98310.88
2023-04-14T09:55:04.734Z,98316.91
2023-04-14T09:57:32.074Z,98315.13
2023-04-14T09:59:59.538Z,98311.69
2023-04-14T10:02:27.178Z,98318.72
2023-04-14T10:05:05.337Z,98314.31
2023-04-14T10:07:33.879Z,98322.19
2023-04-14T10:10:07.770Z,98327.31
2023-04-14T10:12:35.035Z,98331.72
2023-04-14T10:15:02.728Z,98325.00
2023-04-14T10:17:32.048Z,98330.09
2023-04-14T10:20:01.166Z,98337.81
2023-04-14T10:22:29.255Z,98337.78
2023-04-14T10:24:56.694Z,98332.22
2023-04-14T10:27:23.920Z,98326.78
2023-04-14T10:29:51.664Z,98330.47
2023-04-14T10:32:18.858Z,98325.16
2023-04-14T10:35:05.638Z,98325.34
2023-04-14T10:37:33.578Z,98327.13
2023-04-14T10:40:02.550Z,98329.91
2023-04-14T10:42:32.999Z,98334.16
2023-04-14T10:45:07.095Z,98334.13
2023-04-14T10:47:36.143Z,98338.50
2023-04-14T10:50:10.648Z,98338.34
2023-04-14T10:52:38.505Z,98330.53
2023-04-14T10:55:09.575Z,98332.22
2023-04-14T10:57:43.800Z,98335.75
2023-04-14T11:00:22.113Z,98328.69
2023-04-14T11:02:56.563Z,98330.59
2023-04-14T11:05:24.446Z,98323.06
2023-04-14T11:08:01.515Z,98322.09
2023-04-14T11:10:31.502Z,98324.91
2023-04-14T11:13:06.875Z,98324.06
2023-04-14T11:15:43.764Z,98329.84
2023-04-14T11:18:14.900Z,98327.41
2023-04-14T11:20:42.922Z,98320.28
2023-04-14T11:23:12.689Z,98318.44
2023-04-14T11:25:40.442Z,98314.97
2023-04-14T11:28:08.074Z,98309.06
2023-04-14T11:30:36.542Z,98313.22
2023-04-14T11:33:03.826Z,98305.25
2023-04-14T11:35:31.461Z,98307.97
2023-04-14T11:37:59.416Z,98302.84
2023-04-14T11:40:27.535Z,98301.91
2023-04-14T11:42:56.261Z,98304.66
2023-04-14T11:45:27.342Z,98305.16
2023-04-14T11:47:54.903Z,98313.69
2023-04-14T11:50:22.079Z,98312.84
2023-04-14T11:52:49.657Z,98303.16
2023-04-14T11:55:17.682Z,98314.91
2023-04-14T11:57:48.676Z,98314.81
2023-04-14T12:00:16.097Z,98309.84
2023-04-14T12:02:45.029Z,98313.22
2023-04-14T12:05:14.135Z,98306.59
2023-04-14T12:07:45.856Z,98308.03
2023-04-14T12:10:13.674Z,98305.41
2023-04-14T12:12:41.358Z,98310.19
2023-04-14T12:15:08.794Z,98301.81
2023-04-14T12:17:36.379Z,98298.19
2023-04-14T12:20:05.555Z,98306.25
2023-04-14T12:22:32.807Z,98307.16
2023-04-14T12:25:00.320Z,98310.38
2023-04-14T12:27:27.756Z,98312.25
2023-04-14T12:29:54.956Z,98316.59
2023-04-14T12:32:22.803Z,98318.72
2023-04-14T12:34:57.949Z,98314.16
2023-04-14T12:37:28.599Z,98319.50
2023-04-14T12:39:59.734Z,98330.66
2023-04-14T12:42:27.778Z,98330.59
2023-04-14T12:44:55.995Z,98335.03
2023-04-14T12:47:27.066Z,98334.13
2023-04-14T12:49:54.903Z,98340.94
2023-04-14T12:52:34.807Z,98345.09
2023-04-14T12:55:03.258Z,98348.25
2023-04-14T12:57:31.318Z,98343.12
2023-04-14T12:59:59.646Z,98342.75
2023-04-14T13:02:28.265Z,98350.62
2023-04-14T13:04:56.552Z,98351.75
2023-04-14T13:07:23.834Z,98348.97
2023-04-14T13:09:52.042Z,98354.31
2023-04-14T13:12:19.301Z,98367.69
2023-04-14T13:14:46.525Z,98375.06
2023-04-14T13:17:14.110Z,98369.22
2023-04-14T13:19:43.008Z,98379.94
2023-04-14T13:22:10.364Z,98380.16
2023-04-14T13:24:37.843Z,98357.19
2023-04-14T13:27:05.092Z,98355.63
2023-04-14T13:29:33.145Z,98360.44
2023-04-14T13:32:00.814Z,98363.94
2023-04-14T13:34:28.343Z,98370.91
2023-04-14T13:36:56.069Z,98379.94
2023-04-14T13:39:23.604Z,98389.12
2023-04-14T13:41:52.158Z,98390.56
2023-04-14T13:44:19.819Z,98385.25
2023-04-14T13:46:49.398Z,98384.03
2023-04-14T13:49:16.690Z,98388.09
2023-04-14T13:51:43.875Z,98373.47
2023-04-14T13:54:11.378Z,98375.88
2023-04-14T13:56:38.871Z,98376.28
2023-04-14T13:59:06.041Z,98380.59
2023-04-14T14:01:34.071Z,98381.19
2023-04-14T14:04:02.506Z,98385.56
2023-04-14T14:06:29.932Z,98387.06
2023-04-14T14:09:04.111Z,98393.59
2023-04-14T14:11:32.953Z,98381.03
2023-04-14T14:14:00.559Z,98390.84
2023-04-14T14:18:59.978Z,98411.97
2023-04-14T14:21:27.590Z,98413.34
2023-04-14T14:23:54.727Z,98413.94
2023-04-14T14:26:22.135Z,98416.31
2023-04-14T14:28:49.344Z,98414.06
2023-04-14T14:31:16.799Z,98414.28
2023-04-14T14:33:44.236Z,98417.88
2023-04-14T14:36:11.404Z,98416.41
2023-04-14T14:38:38.602Z,98425.88
2023-04-14T14:41:06.078Z,98434.00
2023-04-14T14:43:33.435Z,98441.34
2023-04-14T14:46:01.665Z,98444.06
2023-04-14T14:48:29.351Z,98442.97
2023-04-14T14:50:56.588Z,98443.00
2023-04-14T14:53:23.746Z,98445.13
2023-04-14T14:55:51.164Z,98443.75
2023-04-14T14:58:18.318Z,98444.16
2023-04-14T15:00:46.806Z,98436.94
2023-04-14T15:03:14.454Z,98455.25
2023-04-14T15:05:41.893Z,98456.31
2023-04-14T15:08:09.758Z,98454.16
2023-04-14T15:10:37.330Z,98467.69
2023-04-14T15:13:05.096Z,98467.69
2023-04-14T15:15:36.469Z,98467.00
2023-04-14T15:18:05.587Z,98476.13
2023-04-14T15:20:33.032Z,98471.75
2023-04-14T15:23:00.430Z,98480.97
2023-04-14T15:25:28.171Z,98487.19
2023-04-14T15:27:56.439Z,98494.00
2023-04-14T15:30:23.947Z,98498.25
2023-04-14T15:32:51.606Z,98501.13
2023-04-14T15:35:19.330Z,98494.50
2023-04-14T15:37:47.226Z,98505.44
2023-04-14T15:40:15.929Z,98510.50
2023-04-14T15:42:43.961Z,98500.88
2023-04-14T15:45:11.597Z,98506.69
2023-04-14T15:47:39.336Z,98504.00
2023-04-14T15:50:09.783Z,98514.75
2023-04-14T15:52:38.767Z,98522.44
2023-04-14T15:55:06.665Z,98527.81
2023-04-14T15:57:34.168Z,98531.06
2023-04-14T16:00:03.862Z,98535.03
2023-04-14T16:02:41.946Z,98527.28
2023-04-14T16:05:09.728Z,98521.44
2023-04-14T16:07:37.202Z,98532.63
2023-04-14T16:10:04.593Z,98533.06
2023-04-14T16:12:33.411Z,98535.94
2023-04-14T16:15:00.816Z,98539.13
2023-04-14T16:17:28.043Z,98553.63
2023-04-14T16:19:55.598Z,98545.41
2023-04-14T16:22:22.727Z,98553.28
2023-04-14T16:24:49.897Z,98550.94
2023-04-14T16:27:17.360Z,98554.41
2023-04-14T16:29:44.674Z,98553.28
2023-04-14T16:32:12.350Z,98557.59
2023-04-14T16:34:39.820Z,98561.16
2023-04-14T16:37:07.053Z,98565.22
2023-04-14T16:39:34.202Z,98564.91
2023-04-14T16:42:03.119Z,98562.31
2023-04-14T16:44:30.701Z,98576.84
2023-04-14T16:46:58.372Z,98576.69
2023-04-14T16:49:27.222Z,98586.50
2023-04-14T16:51:55.841Z,98582.28
2023-04-14T16:54:24.183Z,98586.56
2023-04-14T16:56:52.908Z,98597.94
2023-04-14T16:59:20.531Z,98597.50
2023-04-14T17:01:48.075Z,98599.31
2023-04-14T17:04:16.412Z,98614.75
2023-04-14T17:06:43.805Z,98607.75
2023-04-14T17:09:11.029Z,98623.84
2023-04-14T17:11:39.312Z,98618.81
2023-04-14T17:14:08.485Z,98622.31
2023-04-14T17:16:36.209Z,98617.62
2023-04-14T17:19:04.447Z,98619.09
2023-04-14T17:21:32.204Z,98619.41
2023-04-14T17:24:00.494Z,98623.88
2023-04-14T17:26:28.395Z,98629.31
2023-04-14T17:28:56.957Z,98638.38
2023-04-14T17:31:25.140Z,98641.03
2023-04-14T17:33:54.539Z,98640.09
2023-04-14T17:36:23.669Z,98643.28
2023-04-14T17:38:51.084Z,98658.34
2023-04-14T17:41:21.204Z,98660.78
2023-04-14T17:43:49.539Z,98672.56
2023-04-14T17:46:17.980Z,98681.38
2023-04-14T17:48:46.761Z,98682.47
2023-04-14T17:51:14.742Z,98676.41
2023-04-14T17:53:43.645Z,98689.37
2023-04-14T17:56:12.104Z,98694.44
2023-04-14T17:58:39.754Z,98699.22
2023-04-14T18:01:07.431Z,98706.31
2023-04-14T18:03:36.685Z,98706.94
2023-04-14T18:06:04.741Z,98704.31
2023-04-14T18:08:32.720Z,98721.31
2023-04-14T18:11:01.250Z,98722.69
2023-04-14T18:13:28.996Z,98730.72
2023-04-14T18:15:58.258Z,98728.41
2023-04-14T18:18:28.066Z,98744.53
2023-04-14T18:20:55.877Z,98737.41
2023-04-14T18:23:25.281Z,98736.88
2023-04-14T18:28:34.518Z,98741.34
2023-04-14T18:31:04.463Z,98753.69
2023-04-14T18:33:36.386Z,98758.13
2023-04-14T18:36:05.701Z,98746.69
2023-04-14T18:38:33.996Z,98741.41
2023-04-14T18:41:03.476Z,98746.69
2023-04-14T18:43:34.425Z,98749.00
2023-04-14T18:46:04.725Z,98761.50
2023-04-14T18:48:32.794Z,98752.91
2023-04-14T18:51:04.688Z,98748.16
2023-04-14T18:53:33.251Z,98753.38
2023-04-14T18:56:02.842Z,98745.50
2023-04-14T18:58:32.024Z,98749.03
2023-04-14T19:01:02.961Z,98749.72
2023-04-14T19:03:32.445Z,98767.69
2023-04-14T19:06:02.703Z,98760.69
2023-04-14T19:08:31.294Z,98768.28
2023-04-14T19:11:00.631Z,98769.78
2023-04-14T19:13:28.758Z,98772.78
2023-04-14T19:16:06.503Z,98770.19
2023-04-14T19:18:35.964Z,98788.38
2023-04-14T19:21:05.941Z,98782.78
2023-04-14T19:23:34.860Z,98778.69
2023-04-14T19:26:04.750Z,98787.78
2023-04-14T19:28:33.295Z,98786.72
2023-04-14T19:31:03.594Z,98784.78
2023-04-14T19:33:31.067Z,98797.28
2023-04-14T19:35:59.466Z,98796.97
2023-04-14T19:38:28.128Z,98800.84
2023-04-14T19:40:56.137Z,98809.25
2023-04-14T19:43:23.911Z,98798.88
2023-04-14T19:45:52.436Z,98804.69
2023-04-14T19:48:23.846Z,98805.56
2023-04-14T19:50:57.199Z,98806.50
2023-04-14T19:53:25.839Z,98807.59
2023-04-14T19:55:59.123Z,98806.50
2023-04-14T19:58:28.741Z,98810.94
2023-04-14T20:00:59.015Z,98811.50
2023-04-14T20:03:27.070Z,98817.09
2023-04-14T20:05:56.186Z,98821.16
2023-04-14T20:08:25.351Z,98822.72
2023-04-14T20:10:53.357Z,98819.56
2023-04-14T20:13:21.621Z,98826.13
2023-04-14T20:15:50.364Z,98826.56
2023-04-14T20:18:18.331Z,98828.22
2023-04-14T20:20:47.445Z,98830.81
2023-04-14T20:23:15.266Z,98829.34
2023-04-14T20:25:45.957Z,98829.69
2023-04-14T20:28:16.856Z,98828.63
2023-04-14T20:30:45.548Z,98830.00
2023-04-14T20:33:15.146Z,98824.22
2023-04-14T20:35:44.446Z,98827.75
2023-04-14T20:38:15.170Z,98818.63
2023-04-14T20:40:42.839Z,98810.25
2023-04-14T20:43:10.181Z,98813.84
2023-04-14T20:45:38.688Z,98808.56
2023-04-14T20:48:06.192Z,98821.81
2023-04-14T20:50:33.880Z,98815.34
2023-04-14T20:53:01.894Z,98819.00
2023-04-14T20:55:29.369Z,98815.38
2023-04-14T20:57:56.552Z,98818.66
2023-04-14T21:00:24.042Z,98823.28
2023-04-14T21:02:55.024Z,98833.81
2023-04-14T21:05:23.108Z,98840.44
2023-04-14T21:07:51.162Z,98846.31
2023-04-14T21:10:18.603Z,98847.16
2023-04-14T21:15:29.672Z,98848.66
2023-04-14T21:15:48.958Z,98846.62
2023-04-14T21:18:20.950Z,98854.19
2023-04-14T21:20:48.484Z,98858.41
2023-04-14T21:23:35.193Z,98854.44
2023-04-14T21:26:02.628Z,98838.41
2023-04-14T21:28:31.678Z,98833.50
2023-04-14T21:31:02.616Z,98824.22
2023-04-14T21:33:30.799Z,98816.88
2023-04-14T21:35:58.054Z,98839.31
2023-04-14T21:38:25.228Z,98855.06
2023-04-14T21:40:52.709Z,98850.28
2023-04-14T21:43:19.831Z,98848.94
2023-04-14T21:45:47.241Z,98842.97
2023-04-14T21:48:14.716Z,98839.84
2023-04-14T21:50:42.740Z,98847.34
2023-04-14T21:53:10.343Z,98851.84
2023-04-14T21:55:37.800Z,98852.13
2023-04-14T21:58:05.613Z,98854.28
2023-04-14T22:00:32.844Z,98865.22
2023-04-14T22:03:00.409Z,98854.47
2023-04-14T22:05:27.749Z,98858.50
2023-04-14T22:07:55.258Z,98854.62
2023-04-14T22:10:23.448Z,98847.81
2023-04-14T22:12:50.966Z,98856.75
2023-04-14T22:15:18.131Z,98860.22
2023-04-14T22:17:46.147Z,98854.75
2023-04-14T22:20:13.971Z,98858.50
2023-04-14T22:22:41.299Z,98857.91
2023-04-14T22:25:09.749Z,98859.56
2023-04-14T22:27:37.602Z,98865.78
2023-04-14T22:30:05.090Z,98862.62
2023-04-14T22:32:32.722Z,98864.94
2023-04-14T22:35:00.074Z,98857.87
2023-04-14T22:37:27.462Z,98862.31
2023-04-14T22:39:54.919Z,98866.63
2023-04-14T22:42:22.468Z,98867.09
2023-04-14T22:44:51.302Z,98869.81
2023-04-14T22:47:18.855Z,98870.75
2023-04-14T22:49:46.272Z,98865.47
2023-04-14T22:52:13.388Z,98867.03
2023-04-14T22:54:40.849Z,98868.59
2023-04-14T22:57:08.338Z,98866.44
2023-04-14T22:59:35.443Z,98863.63
2023-04-14T23:02:03.424Z,98869.56
2023-04-14T23:04:31.488Z,98866.22
2023-04-14T23:06:58.717Z,98871.63
2023-04-14T23:09:30.373Z,98867.00
2023-04-14T23:11:58.045Z,98858.16
2023-04-14T23:14:25.788Z,98866.03
2023-04-14T23:16:52.955Z,98861.28
2023-04-14T23:19:20.306Z,98856.38
2023-04-14T23:21:47.947Z,98854.03
2023-04-14T23:24:15.677Z,98862.47
2023-04-14T23:26:42.834Z,98870.97
2023-04-14T23:29:10.688Z,98876.09
2023-04-14T23:31:37.949Z,98871.50
2023-04-14T23:34:05.491Z,98878.16
2023-04-14T23:36:32.936Z,98879.59
2023-04-14T23:39:00.287Z,98883.53
2023-04-14T23:41:28.495Z,98882.03
2023-04-14T23:43:56.370Z,98894.25
2023-04-14T23:46:23.527Z,98892.34
2023-04-14T23:48:51.483Z,98885.44
2023-04-14T23:51:20.993Z,98890.41
2023-04-14T23:53:49.176Z,98883.81
2023-04-14T23:56:16.471Z,98886.50
2023-04-14T23:58:44.001Z,98889.53
